Robert G. Stone, Jr. — WDD4596 — position and weather

sailwx.info

Track history (hours):
 
Tides and Currents Weather Stations Pressure Air Temp Water Temp Dewpoint Dewpoint Depression Visibility Wind Speed Wind Dir Waves Ship Positions

Robert G. Stone, Jr.

Owner: Kirby Inland Marine, LP, Houston, TX. More information available from US FCC via Universal Licensing System and Coast Guard Vessel Documentation Center.

Last reported at 2017-Aug-20 09:22 UTC. Time now 2017-Aug-20 09:57 UTC.
Position N 30°04' W 093°41'.

Length 210 m; draft 2.7 m.

Type: . MMSI: 367146780.

Date/timePositionNaut miles runAvg speedWind from/ knotsBaromVisibWave heightAir tempDewpointWater temp
2017-Aug-20 09:22N 30°04' W 093°41'2 6.9
2017-Aug-20 09:00N 30°04' W 093°38'4 7.0
2017-Aug-20 08:31N 30°04' W 093°34'3 6.8
2017-Aug-20 08:01N 30°04' W 093°30'3 6.7
2017-Aug-20 07:31N 30°04' W 093°26'3 6.2
2017-Aug-20 07:00N 30°04' W 093°23'2 3.5
2017-Aug-20 06:30N 30°04' W 093°21'2 4.0
2017-Aug-20 06:00N 30°06' W 093°19'1 2.0
2017-Aug-20 05:31N 30°06' W 093°18'0 0.1
2017-Aug-20 05:01N 30°06' W 093°18'1 2.4
2017-Aug-20 04:31N 30°05' W 093°17'2 4.4
2017-Aug-20 04:01N 30°04' W 093°16'3 6.0
2017-Aug-20 03:31N 30°01' W 093°14'2 3.1
2017-Aug-20 03:01N 29°60' W 093°13'3 6.2
2017-Aug-20 02:31N 29°57' W 093°11'3 6.0
2017-Aug-20 02:01N 29°56' W 093°08'3 6.1
2017-Aug-20 01:30N 29°56' W 093°04'38 6.4
2017-Aug-19 19:31N 29°51' W 092°20'2 6.7
2017-Aug-19 19:16N 29°50' W 092°18'2 6.4
2017-Aug-19 19:00N 29°49' W 092°17'3 6.9
2017-Aug-19 18:31N 29°48' W 092°13'3 6.1
2017-Aug-19 18:00N 29°47' W 092°10'3 6.7
2017-Aug-19 17:31N 29°48' W 092°06'3 6.8
2017-Aug-19 17:01N 29°49' W 092°03'128 3.6
2017-Aug-18 05:26N 31°51' W 091°19'10 9.1
2017-Aug-18 04:22N 31°58' W 091°11'510.1
2017-Aug-18 03:52N 31°60' W 091°05'6 9.5
2017-Aug-18 03:16N 32°05' W 091°05'3 9.8
2017-Aug-18 03:01N 32°08' W 091°06'5 9.9
2017-Aug-18 02:31N 32°08' W 091°00'611.1
2017-Aug-18 02:01N 32°13' W 090°59'510.7
2017-Aug-18 01:30N 32°18' W 090°55'3 6.7
2017-Aug-18 01:01N 32°21' W 090°57'4 7.7
2017-Aug-18 00:30N 32°24' W 090°59'510.9
2017-Aug-18 00:00N 32°27' W 091°05'510.0
2017-Aug-17 23:29N 32°32' W 091°06'510.9
2017-Aug-17 23:00N 32°37' W 091°09'  
Track history (hours):
 
Tides and Currents Weather Stations Pressure Air Temp Water Temp Dewpoint Dewpoint Depression Visibility Wind Speed Wind Dir Waves Ship Positions

Robert G. Stone, Jr.

Owner: Kirby Inland Marine, LP, Houston, TX. More information available from US FCC via Universal Licensing System and Coast Guard Vessel Documentation Center.

Last reported at 2017-Aug-20 09:22 UTC. Time now 2017-Aug-20 09:57 UTC.
Position N 30°04' W 093°41'.

Length 210 m; draft 2.7 m.

Type: . MMSI: 367146780.

Date/timePositionNaut miles runAvg speedWind from/ knotsBaromVisibWave heightAir tempDewpointWater temp
2017-Aug-20 09:22N 30°04' W 093°41'2 6.9
2017-Aug-20 09:00N 30°04' W 093°38'4 7.0
2017-Aug-20 08:31N 30°04' W 093°34'3 6.8
2017-Aug-20 08:01N 30°04' W 093°30'3 6.7
2017-Aug-20 07:31N 30°04' W 093°26'3 6.2
2017-Aug-20 07:00N 30°04' W 093°23'2 3.5
2017-Aug-20 06:30N 30°04' W 093°21'2 4.0
2017-Aug-20 06:00N 30°06' W 093°19'1 2.0
2017-Aug-20 05:31N 30°06' W 093°18'0 0.1
2017-Aug-20 05:01N 30°06' W 093°18'1 2.4
2017-Aug-20 04:31N 30°05' W 093°17'2 4.4
2017-Aug-20 04:01N 30°04' W 093°16'3 6.0
2017-Aug-20 03:31N 30°01' W 093°14'2 3.1
2017-Aug-20 03:01N 29°60' W 093°13'3 6.2
2017-Aug-20 02:31N 29°57' W 093°11'3 6.0
2017-Aug-20 02:01N 29°56' W 093°08'3 6.1
2017-Aug-20 01:30N 29°56' W 093°04'38 6.4
2017-Aug-19 19:31N 29°51' W 092°20'2 6.7
2017-Aug-19 19:16N 29°50' W 092°18'2 6.4
2017-Aug-19 19:00N 29°49' W 092°17'3 6.9
2017-Aug-19 18:31N 29°48' W 092°13'3 6.1
2017-Aug-19 18:00N 29°47' W 092°10'3 6.7
2017-Aug-19 17:31N 29°48' W 092°06'3 6.8
2017-Aug-19 17:01N 29°49' W 092°03'128 3.6
2017-Aug-18 05:26N 31°51' W 091°19'10 9.1
2017-Aug-18 04:22N 31°58' W 091°11'510.1
2017-Aug-18 03:52N 31°60' W 091°05'6 9.5
2017-Aug-18 03:16N 32°05' W 091°05'3 9.8
2017-Aug-18 03:01N 32°08' W 091°06'5 9.9
2017-Aug-18 02:31N 32°08' W 091°00'611.1
2017-Aug-18 02:01N 32°13' W 090°59'510.7
2017-Aug-18 01:30N 32°18' W 090°55'3 6.7
2017-Aug-18 01:01N 32°21' W 090°57'4 7.7
2017-Aug-18 00:30N 32°24' W 090°59'510.9
2017-Aug-18 00:00N 32°27' W 091°05'510.0
2017-Aug-17 23:29N 32°32' W 091°06'510.9
2017-Aug-17 23:00N 32°37' W 091°09'  

Dump ship's entire track history